Terminal Aerodrome Forecast
Issued by NWS Sterling, VA

Home | Current Version | Previous Version | Text Only | Print | Product List | Glossary On
Versions: 1 2 3 4 5 6 7 8 9 10 11 12 13 14 15 16 17 18 19 20 21 22 23
000
FTUS41 KLWX 012300
TAFBWI
TAF
KBWI 012320Z 0200/0306 VRB03KT P6SM SCT040
     FM020200 VRB03KT P6SM BKN035
     FM021400 VRB03KT P6SM FEW010 SCT250
     FM021800 07004KT P6SM SCT035
     FM030200 VRB03KT P6SM SCT250=

USA.gov is the U.S. government's official web portal to all federal, state and local government web resources and services.